createdAt,value
2019-01-16T00:01:23.439Z,8.13
2019-01-16T00:03:50.454Z,9.55
2019-01-16T00:06:17.550Z,11.97
2019-01-16T00:08:44.708Z,10.72
2019-01-16T00:11:11.803Z,8.45
2019-01-16T00:13:38.852Z,7.42
2019-01-16T00:16:05.572Z,7.70
2019-01-16T00:18:32.207Z,8.60
2019-01-16T00:20:59.816Z,9.30
2019-01-16T00:23:26.466Z,9.95
2019-01-16T00:25:53.081Z,8.15
2019-01-16T00:28:19.749Z,11.33
2019-01-16T00:30:47.054Z,7.12
2019-01-16T00:33:13.747Z,5.28
2019-01-16T00:35:40.741Z,8.78
2019-01-16T00:38:07.842Z,8.88
2019-01-16T00:40:34.820Z,8.90
2019-01-16T00:43:02.444Z,9.58
2019-01-16T00:45:30.270Z,13.98
2019-01-16T00:47:57.334Z,8.25
2019-01-16T00:50:24.030Z,10.90
2019-01-16T00:52:51.233Z,8.48
2019-01-16T00:55:18.236Z,6.40
2019-01-16T00:57:45.291Z,8.23
2019-01-16T01:00:12.342Z,6.70
2019-01-16T01:02:39.383Z,6.75
2019-01-16T01:05:07.100Z,6.58
2019-01-16T01:07:34.210Z,6.50
2019-01-16T01:10:01.876Z,7.10
2019-01-16T01:12:28.912Z,7.60
2019-01-16T01:14:55.952Z,9.15
2019-01-16T01:17:22.993Z,9.23
2019-01-16T01:19:50.671Z,6.35
2019-01-16T01:22:17.304Z,5.35
2019-01-16T01:24:44.368Z,10.38
2019-01-16T01:27:11.521Z,8.25
2019-01-16T01:29:38.545Z,7.70
2019-01-16T01:32:05.669Z,6.97
2019-01-16T01:34:32.766Z,5.45
2019-01-16T01:36:59.401Z,6.10
2019-01-16T01:39:26.320Z,6.03
2019-01-16T01:41:53.389Z,6.65
2019-01-16T01:44:20.440Z,5.37
2019-01-16T01:46:47.072Z,6.45
2019-01-16T01:49:13.774Z,7.58
2019-01-16T01:51:40.352Z,6.12
2019-01-16T01:54:07.017Z,10.38
2019-01-16T01:56:33.654Z,7.42
2019-01-16T01:59:00.288Z,8.00
2019-01-16T02:01:27.006Z,4.62
2019-01-16T02:03:54.130Z,6.55
2019-01-16T02:06:21.215Z,5.67
2019-01-16T02:08:48.332Z,7.53
2019-01-16T02:11:16.133Z,5.58
2019-01-16T02:13:43.170Z,6.85
2019-01-16T02:16:09.832Z,7.87
2019-01-16T02:18:36.842Z,5.65
2019-01-16T02:21:03.549Z,7.10
2019-01-16T02:23:30.160Z,4.25
2019-01-16T02:25:57.183Z,5.60
2019-01-16T02:28:23.840Z,7.53
2019-01-16T02:30:50.482Z,3.17
2019-01-16T02:33:17.061Z,5.67
2019-01-16T02:35:44.329Z,4.47
2019-01-16T02:38:10.977Z,3.42
2019-01-16T02:40:37.608Z,4.92
2019-01-16T02:43:04.267Z,4.22
2019-01-16T02:45:30.910Z,3.62
2019-01-16T02:47:57.930Z,3.50
2019-01-16T02:50:24.998Z,3.83
2019-01-16T02:52:51.598Z,5.05
2019-01-16T02:55:18.235Z,5.30
2019-01-16T02:57:44.870Z,4.37
2019-01-16T03:00:11.477Z,4.80
2019-01-16T03:02:38.597Z,3.35
2019-01-16T03:05:05.667Z,2.92
2019-01-16T03:07:32.299Z,4.33
2019-01-16T03:09:59.434Z,5.90
2019-01-16T03:12:26.504Z,4.78
2019-01-16T03:14:53.532Z,5.95
2019-01-16T03:17:20.446Z,5.10
2019-01-16T03:19:47.118Z,5.05
2019-01-16T03:22:14.168Z,4.92
2019-01-16T03:24:41.335Z,5.35
2019-01-16T03:27:08.374Z,4.95
2019-01-16T03:29:35.426Z,3.75
2019-01-16T03:32:02.462Z,4.60
2019-01-16T03:34:29.524Z,4.37
2019-01-16T03:36:56.200Z,3.60
2019-01-16T03:39:23.201Z,3.50
2019-01-16T03:41:50.891Z,3.35
2019-01-16T03:44:17.882Z,1.98
2019-01-16T03:46:44.954Z,2.58
2019-01-16T03:49:13.807Z,2.83
2019-01-16T03:51:40.935Z,2.55
2019-01-16T03:54:07.938Z,2.05
2019-01-16T03:56:35.410Z,2.00
2019-01-16T03:59:02.426Z,2.20
2019-01-16T04:01:29.487Z,1.67
2019-01-16T04:03:56.191Z,2.90
2019-01-16T04:06:23.176Z,2.75
2019-01-16T04:08:49.757Z,2.62
2019-01-16T04:11:16.740Z,1.85
2019-01-16T04:13:43.811Z,3.35
2019-01-16T04:16:10.424Z,3.20
2019-01-16T04:18:37.512Z,1.90
2019-01-16T04:21:04.115Z,4.15
2019-01-16T04:23:31.194Z,1.98
2019-01-16T04:25:57.867Z,2.10
2019-01-16T04:28:24.451Z,2.10
2019-01-16T04:30:51.519Z,2.33
2019-01-16T04:33:18.548Z,1.85
2019-01-16T04:35:45.621Z,1.82
2019-01-16T04:38:12.639Z,2.90
2019-01-16T04:40:39.696Z,2.20
2019-01-16T04:43:06.745Z,3.33
2019-01-16T04:45:33.332Z,2.17
2019-01-16T04:48:00.408Z,2.80
2019-01-16T04:50:26.990Z,1.70
2019-01-16T04:52:53.584Z,2.30
2019-01-16T04:55:21.255Z,1.80
2019-01-16T04:57:47.845Z,1.90
2019-01-16T05:00:14.853Z,2.30
2019-01-16T05:02:41.921Z,2.17
2019-01-16T05:05:08.558Z,2.58
2019-01-16T05:07:35.600Z,1.90
2019-01-16T05:10:02.734Z,3.83
2019-01-16T05:12:29.554Z,2.22
2019-01-16T05:14:56.877Z,1.77
2019-01-16T05:17:23.540Z,2.80
2019-01-16T05:19:51.313Z,4.92
2019-01-16T05:22:19.027Z,3.22
2019-01-16T05:24:46.120Z,2.50
2019-01-16T05:27:12.709Z,3.20
2019-01-16T05:29:39.749Z,2.30
2019-01-16T05:32:06.385Z,2.62
2019-01-16T05:34:33.501Z,3.45
2019-01-16T05:37:00.132Z,5.50
2019-01-16T05:39:27.203Z,2.40
2019-01-16T05:41:54.132Z,2.42
2019-01-16T05:44:21.191Z,3.05
2019-01-16T05:46:48.755Z,1.87
2019-01-16T05:49:16.474Z,2.50
2019-01-16T05:51:43.456Z,3.22
2019-01-16T05:54:10.509Z,3.02
2019-01-16T05:56:37.557Z,3.80
2019-01-16T05:59:04.615Z,3.55
2019-01-16T06:01:31.667Z,2.87
2019-01-16T06:03:58.308Z,2.08
2019-01-16T06:06:25.850Z,2.27
2019-01-16T06:08:52.909Z,2.95
2019-01-16T06:11:19.553Z,3.17
2019-01-16T06:13:46.166Z,4.35
2019-01-16T06:16:13.132Z,2.22
2019-01-16T06:18:40.293Z,2.80
2019-01-16T06:21:07.341Z,2.25
2019-01-16T06:23:35.031Z,2.05
2019-01-16T06:26:01.728Z,3.10
2019-01-16T06:28:28.772Z,2.42
2019-01-16T06:30:55.824Z,3.05
2019-01-16T06:33:22.875Z,3.12
2019-01-16T06:35:49.474Z,3.08
2019-01-16T06:38:16.556Z,2.67
2019-01-16T06:40:43.606Z,2.67
2019-01-16T06:43:10.242Z,3.30
2019-01-16T06:45:36.853Z,2.80
2019-01-16T06:48:04.003Z,4.05
2019-01-16T06:50:30.600Z,2.87
2019-01-16T06:52:57.239Z,4.65
2019-01-16T06:55:24.361Z,2.90
2019-01-16T06:57:51.408Z,3.35
2019-01-16T07:00:17.991Z,4.17
2019-01-16T07:02:44.617Z,3.55
2019-01-16T07:05:11.316Z,3.62
2019-01-16T07:07:38.367Z,4.00
2019-01-16T07:10:05.428Z,4.67
2019-01-16T07:12:32.140Z,4.97
2019-01-16T07:14:59.219Z,5.05
2019-01-16T07:17:26.923Z,5.87
2019-01-16T07:19:54.660Z,4.55
2019-01-16T07:22:22.340Z,6.78
2019-01-16T07:24:49.343Z,8.38
2019-01-16T07:27:16.501Z,7.90
2019-01-16T07:29:43.584Z,7.83
2019-01-16T07:32:10.616Z,9.08
2019-01-16T07:34:37.663Z,9.55
2019-01-16T07:37:04.378Z,10.48
2019-01-16T07:39:31.110Z,10.68
2019-01-16T07:41:58.167Z,13.00
2019-01-16T07:44:25.304Z,11.12
2019-01-16T07:46:52.457Z,12.37
2019-01-16T07:49:19.137Z,9.78
2019-01-16T07:51:46.232Z,12.15
2019-01-16T07:54:12.983Z,12.93
2019-01-16T07:56:40.136Z,12.93
2019-01-16T07:59:07.290Z,13.10
2019-01-16T08:01:34.031Z,15.45
2019-01-16T08:04:00.880Z,12.93
2019-01-16T08:06:27.597Z,11.05
2019-01-16T08:08:54.362Z,11.65
2019-01-16T08:11:21.190Z,17.35
2019-01-16T08:13:47.921Z,13.15
2019-01-16T08:16:14.663Z,15.88
2019-01-16T08:18:41.527Z,15.55
2019-01-16T08:21:08.247Z,13.30
2019-01-16T08:23:35.423Z,15.63
2019-01-16T08:26:02.548Z,13.90
2019-01-16T08:28:29.312Z,16.48
2019-01-16T08:30:56.428Z,11.83
2019-01-16T08:33:23.567Z,15.78
2019-01-16T08:35:50.291Z,16.37
2019-01-16T08:38:16.933Z,14.60
2019-01-16T08:40:43.730Z,11.97
2019-01-16T08:43:10.412Z,15.58
2019-01-16T08:45:37.096Z,10.88
2019-01-16T08:48:04.972Z,16.02
2019-01-16T08:50:32.928Z,16.93
2019-01-16T08:53:00.039Z,10.35
2019-01-16T08:55:27.432Z,16.50
2019-01-16T08:57:54.572Z,17.30
2019-01-16T09:00:21.523Z,18.87
2019-01-16T09:02:48.300Z,17.62
2019-01-16T09:05:21.640Z,16.67
2019-01-16T09:07:48.649Z,16.32
2019-01-16T09:10:16.748Z,13.58
2019-01-16T09:12:43.819Z,13.20
2019-01-16T09:15:10.824Z,16.17
2019-01-16T09:17:38.217Z,16.23
2019-01-16T09:20:21.707Z,18.07
2019-01-16T09:22:54.213Z,17.60
2019-01-16T09:25:27.796Z,18.20
2019-01-16T09:27:54.625Z,20.27
2019-01-16T09:30:25.016Z,17.70
2019-01-16T09:32:52.451Z,16.77
2019-01-16T09:35:19.191Z,14.38
2019-01-16T09:37:46.183Z,14.53
2019-01-16T09:40:13.151Z,18.07
2019-01-16T09:42:40.224Z,16.17
2019-01-16T09:45:07.375Z,15.60
2019-01-16T09:47:34.444Z,11.97
2019-01-16T09:50:01.450Z,16.10
2019-01-16T09:52:28.516Z,13.85
2019-01-16T09:54:55.469Z,13.25
2019-01-16T09:57:22.119Z,13.83
2019-01-16T09:59:49.224Z,14.28
2019-01-16T10:02:16.233Z,12.20
2019-01-16T10:04:43.115Z,13.98
2019-01-16T10:07:09.882Z,13.93
2019-01-16T10:09:36.907Z,12.05
2019-01-16T10:12:12.964Z,11.60
2019-01-16T10:14:40.101Z,10.38
2019-01-16T10:17:07.154Z,9.03
2019-01-16T10:19:34.238Z,10.32
2019-01-16T10:22:01.451Z,9.55
2019-01-16T10:24:28.534Z,11.28
2019-01-16T10:26:55.234Z,11.90
2019-01-16T10:29:22.405Z,9.83
2019-01-16T10:31:49.030Z,9.85
2019-01-16T10:34:15.592Z,9.35
2019-01-16T10:36:42.832Z,10.25
2019-01-16T10:39:09.437Z,8.35
2019-01-16T10:41:36.500Z,7.95
2019-01-16T10:44:04.039Z,6.67
2019-01-16T10:46:30.674Z,7.72
2019-01-16T10:48:57.747Z,7.30
2019-01-16T10:51:24.497Z,10.70
2019-01-16T10:53:51.519Z,9.40
2019-01-16T10:56:18.428Z,6.78
2019-01-16T10:58:45.620Z,8.35
2019-01-16T11:01:12.372Z,12.33
2019-01-16T11:03:39.207Z,8.48
2019-01-16T11:06:06.247Z,9.35
2019-01-16T11:08:33.291Z,8.90
2019-01-16T11:11:00.391Z,10.18
2019-01-16T11:13:27.588Z,9.65
2019-01-16T11:15:54.604Z,9.08
2019-01-16T11:18:21.620Z,10.78
2019-01-16T11:20:48.318Z,9.10
2019-01-16T11:23:15.013Z,10.08
2019-01-16T11:25:41.718Z,10.28
2019-01-16T11:28:09.137Z,13.62
2019-01-16T11:30:35.771Z,16.05
2019-01-16T11:33:02.825Z,21.57
2019-01-16T11:35:29.611Z,33.73
2019-01-16T11:37:56.815Z,15.88
2019-01-16T11:40:24.004Z,15.45
2019-01-16T11:42:50.709Z,15.30
2019-01-16T11:45:17.682Z,12.10
2019-01-16T11:47:44.316Z,12.35
2019-01-16T11:50:11.728Z,12.90
2019-01-16T11:52:38.804Z,11.05
2019-01-16T11:55:05.961Z,10.93
2019-01-16T11:57:33.155Z,12.05
2019-01-16T12:00:00.251Z,10.90
2019-01-16T12:02:29.679Z,19.80
2019-01-16T12:04:56.389Z,13.70
2019-01-16T12:07:23.518Z,12.33
2019-01-16T12:09:53.578Z,12.98
2019-01-16T12:12:20.677Z,11.08
2019-01-16T12:14:47.823Z,11.00
2019-01-16T12:17:14.907Z,10.00
2019-01-16T12:19:42.491Z,8.38
2019-01-16T12:22:09.165Z,7.25
2019-01-16T12:24:35.772Z,6.78
2019-01-16T12:27:02.527Z,10.90
2019-01-16T12:29:29.658Z,7.42
2019-01-16T12:31:56.709Z,8.78
2019-01-16T12:34:23.343Z,8.18
2019-01-16T12:36:49.910Z,9.83
2019-01-16T12:39:17.042Z,10.32
2019-01-16T12:41:44.136Z,10.98
2019-01-16T12:44:10.832Z,13.88
2019-01-16T12:46:38.314Z,16.52
2019-01-16T12:49:06.042Z,20.65
2019-01-16T12:51:33.801Z,17.98
2019-01-16T12:54:01.330Z,16.23
2019-01-16T12:56:30.973Z,11.68
2019-01-16T12:58:58.090Z,13.28
2019-01-16T13:01:25.873Z,11.78
2019-01-16T13:03:53.622Z,9.05
2019-01-16T13:06:20.279Z,11.53
2019-01-16T13:08:47.016Z,10.23
2019-01-16T13:11:14.134Z,13.88
2019-01-16T13:13:40.858Z,13.18
2019-01-16T13:16:08.707Z,15.32
2019-01-16T13:18:37.219Z,16.55
2019-01-16T13:21:04.313Z,18.82
2019-01-16T13:23:31.195Z,19.23
2019-01-16T13:25:58.340Z,16.25
2019-01-16T13:28:27.256Z,16.17
2019-01-16T13:30:55.128Z,15.72
2019-01-16T13:33:22.355Z,16.07
2019-01-16T13:35:49.153Z,14.75
2019-01-16T13:38:16.153Z,16.57
2019-01-16T13:40:43.120Z,15.60
2019-01-16T13:43:10.110Z,16.23
2019-01-16T13:45:37.090Z,13.32
2019-01-16T13:48:04.090Z,13.72
2019-01-16T13:50:33.268Z,13.90
2019-01-16T13:52:59.937Z,11.25
2019-01-16T13:55:27.398Z,10.63
2019-01-16T13:57:54.310Z,11.45
2019-01-16T14:00:21.659Z,13.15
2019-01-16T14:02:48.729Z,13.45
2019-01-16T14:05:15.831Z,25.15
2019-01-16T14:07:43.054Z,22.85
2019-01-16T14:10:09.781Z,14.13
2019-01-16T14:12:36.935Z,20.05
2019-01-16T14:15:04.283Z,19.55
2019-01-16T14:17:31.329Z,21.42
2019-01-16T14:19:58.759Z,16.77
2019-01-16T14:22:26.679Z,19.98
2019-01-16T14:24:53.351Z,19.75
2019-01-16T14:27:20.510Z,21.82
2019-01-16T14:29:47.340Z,20.37
2019-01-16T14:32:14.330Z,22.20
2019-01-16T14:34:41.247Z,25.10
2019-01-16T14:37:08.316Z,27.17
2019-01-16T14:39:35.091Z,26.93
2019-01-16T14:42:02.299Z,21.37
2019-01-16T14:44:31.785Z,23.07
2019-01-16T14:46:58.914Z,24.98
2019-01-16T14:49:26.112Z,27.93
2019-01-16T14:51:59.488Z,23.42
2019-01-16T14:54:22.366Z,25.80
2019-01-16T14:56:49.623Z,25.90
2019-01-16T14:59:16.864Z,35.13
2019-01-16T15:01:44.029Z,38.95
2019-01-16T15:04:11.111Z,27.85
2019-01-16T15:06:39.004Z,25.68
2019-01-16T15:09:05.729Z,18.70
2019-01-16T15:11:32.730Z,22.27
2019-01-16T15:13:59.474Z,24.90
2019-01-16T15:16:26.515Z,29.67
2019-01-16T15:18:53.363Z,29.67
2019-01-16T15:21:20.067Z,29.42
2019-01-16T15:23:47.602Z,27.00
2019-01-16T15:26:15.061Z,26.33
2019-01-16T15:28:44.004Z,30.05
2019-01-16T15:31:11.785Z,24.92
2019-01-16T15:33:38.597Z,31.57
2019-01-16T15:36:06.008Z,23.57
2019-01-16T15:38:32.685Z,19.32
2019-01-16T15:40:59.736Z,21.87
2019-01-16T15:43:26.695Z,19.17
2019-01-16T15:45:53.406Z,20.90
2019-01-16T15:48:20.120Z,18.23
2019-01-16T15:50:46.885Z,15.58
2019-01-16T15:53:13.951Z,19.02
2019-01-16T15:55:41.794Z,14.55
2019-01-16T15:58:09.165Z,17.85
2019-01-16T16:00:36.592Z,15.83
2019-01-16T16:03:03.677Z,18.60
2019-01-16T16:05:30.426Z,17.15
2019-01-16T16:07:58.168Z,24.70
2019-01-16T16:10:24.924Z,17.65
2019-01-16T16:12:52.779Z,18.48
2019-01-16T16:15:19.839Z,20.62
2019-01-16T16:17:47.654Z,21.17
2019-01-16T16:20:14.757Z,24.02
2019-01-16T16:22:42.130Z,28.80
2019-01-16T16:25:08.833Z,25.20
2019-01-16T16:27:36.002Z,25.35
2019-01-16T16:30:03.155Z,27.93
2019-01-16T16:32:29.870Z,28.77
2019-01-16T16:34:56.964Z,29.12
2019-01-16T16:37:23.752Z,21.57
2019-01-16T16:39:51.486Z,24.60
2019-01-16T16:42:18.505Z,20.05
2019-01-16T16:44:45.641Z,20.82
2019-01-16T16:47:12.803Z,23.47
2019-01-16T16:49:40.040Z,17.48
2019-01-16T16:52:07.508Z,22.93
2019-01-16T16:54:34.641Z,20.05
2019-01-16T16:57:01.680Z,25.40
2019-01-16T16:59:28.386Z,21.77
2019-01-16T17:01:55.507Z,16.25
2019-01-16T17:04:22.663Z,22.35
2019-01-16T17:06:49.340Z,21.62
2019-01-16T17:09:16.072Z,17.25
2019-01-16T17:11:43.125Z,17.30
2019-01-16T17:14:09.856Z,21.17
2019-01-16T17:16:36.566Z,21.97
2019-01-16T17:19:04.257Z,21.20
2019-01-16T17:21:31.360Z,19.98
2019-01-16T17:23:58.514Z,24.12
2019-01-16T17:26:25.310Z,27.70
2019-01-16T17:28:51.998Z,29.80
2019-01-16T17:31:18.689Z,30.45
2019-01-16T17:33:45.879Z,33.63
2019-01-16T17:36:13.627Z,34.60
2019-01-16T17:38:40.611Z,34.85
2019-01-16T17:41:07.948Z,32.33
2019-01-16T17:43:34.633Z,33.10
2019-01-16T17:46:01.746Z,30.82
2019-01-16T17:48:28.865Z,28.65
2019-01-16T17:50:55.936Z,31.50
2019-01-16T17:53:22.963Z,37.00
2019-01-16T17:55:50.132Z,33.63
2019-01-16T17:58:17.186Z,30.12
2019-01-16T18:00:44.238Z,29.15
2019-01-16T18:03:11.026Z,28.60
2019-01-16T18:05:37.763Z,22.73
2019-01-16T18:08:04.764Z,27.52
2019-01-16T18:10:32.018Z,28.02
2019-01-16T18:12:59.185Z,24.90
2019-01-16T18:15:25.891Z,29.50
2019-01-16T18:17:53.088Z,26.30
2019-01-16T18:20:20.261Z,23.20
2019-01-16T18:22:48.193Z,21.90
2019-01-16T18:25:14.945Z,23.20
2019-01-16T18:27:41.686Z,18.98
2019-01-16T18:30:08.491Z,20.82
2019-01-16T18:32:35.204Z,26.17
2019-01-16T18:35:02.263Z,25.50
2019-01-16T18:37:38.344Z,23.47
2019-01-16T18:40:05.342Z,23.25
2019-01-16T18:42:32.372Z,27.73
2019-01-16T18:44:59.536Z,25.65
2019-01-16T18:47:26.633Z,25.45
2019-01-16T18:49:53.342Z,26.90
2019-01-16T18:52:20.406Z,25.72
2019-01-16T18:54:47.113Z,24.85
2019-01-16T18:57:14.221Z,21.85
2019-01-16T18:59:41.669Z,27.05
2019-01-16T19:02:08.327Z,24.05
2019-01-16T19:04:35.529Z,25.23
2019-01-16T19:07:02.375Z,23.47
2019-01-16T19:09:29.097Z,25.50
2019-01-16T19:11:57.879Z,29.55
2019-01-16T19:14:25.043Z,28.38
2019-01-16T19:16:51.890Z,30.85
2019-01-16T19:19:18.961Z,33.42
2019-01-16T19:21:46.030Z,29.15
2019-01-16T19:24:12.743Z,29.32
2019-01-16T19:26:39.552Z,34.40
2019-01-16T19:29:06.239Z,40.92
2019-01-16T19:31:32.978Z,35.85
2019-01-16T19:34:00.129Z,42.58
2019-01-16T19:36:27.106Z,43.75
2019-01-16T19:38:53.821Z,50.43
2019-01-16T19:41:20.938Z,48.02
2019-01-16T19:43:47.648Z,54.60
2019-01-16T19:46:14.457Z,46.45
2019-01-16T19:48:41.104Z,48.33
2019-01-16T19:51:08.280Z,43.78
2019-01-16T19:53:35.611Z,34.08
2019-01-16T19:56:02.309Z,31.68
2019-01-16T19:58:31.656Z,28.00
2019-01-16T20:00:58.412Z,30.08
2019-01-16T20:03:25.052Z,26.42
2019-01-16T20:05:51.742Z,25.65
2019-01-16T20:08:23.410Z,24.95
2019-01-16T20:10:50.702Z,26.97
2019-01-16T20:13:17.405Z,31.95
2019-01-16T20:15:46.840Z,34.40
2019-01-16T20:18:13.990Z,37.90
2019-01-16T20:20:40.782Z,38.92
2019-01-16T20:23:11.135Z,43.73
2019-01-16T20:25:37.688Z,41.15
2019-01-16T20:28:07.980Z,40.35
2019-01-16T20:30:35.058Z,50.55
2019-01-16T20:33:04.261Z,50.40
2019-01-16T20:35:30.693Z,46.90
2019-01-16T20:37:57.469Z,56.83
2019-01-16T20:40:24.158Z,46.88
2019-01-16T20:42:51.007Z,47.90
2019-01-16T20:45:18.067Z,45.43
2019-01-16T20:47:44.748Z,44.40
2019-01-16T20:50:12.054Z,44.10
2019-01-16T20:52:38.750Z,46.15
2019-01-16T20:55:05.807Z,44.03
2019-01-16T20:57:32.566Z,45.80
2019-01-16T20:59:59.215Z,45.90
2019-01-16T21:02:25.903Z,44.18
2019-01-16T21:04:53.019Z,44.38
2019-01-16T21:07:19.731Z,46.15
2019-01-16T21:09:46.465Z,48.50
2019-01-16T21:12:13.629Z,39.63
2019-01-16T21:14:40.331Z,51.55
2019-01-16T21:17:07.513Z,47.03
2019-01-16T21:19:34.163Z,62.17
2019-01-16T21:22:00.948Z,59.18
2019-01-16T21:24:27.594Z,58.23
2019-01-16T21:26:54.290Z,61.75
2019-01-16T21:29:21.551Z,56.88
2019-01-16T21:31:48.222Z,51.37
2019-01-16T21:34:15.295Z,58.85
2019-01-16T21:36:42.087Z,62.70
2019-01-16T21:39:09.230Z,52.05
2019-01-16T21:41:35.923Z,61.05
2019-01-16T21:44:02.637Z,65.83
2019-01-16T21:46:29.329Z,67.75
2019-01-16T21:48:56.376Z,74.17
2019-01-16T21:51:24.179Z,72.53
2019-01-16T21:53:51.306Z,73.72
2019-01-16T21:56:18.331Z,74.03
2019-01-16T21:58:45.548Z,67.32
2019-01-16T22:01:12.635Z,66.37
2019-01-16T22:03:39.320Z,73.07
2019-01-16T22:06:06.738Z,63.87
2019-01-16T22:08:33.457Z,84.87
2019-01-16T22:11:00.520Z,97.82
2019-01-16T22:13:27.241Z,85.80
2019-01-16T22:15:53.962Z,94.00
2019-01-16T22:18:21.039Z,100.18
2019-01-16T22:20:47.832Z,77.90
2019-01-16T22:23:14.941Z,64.22
2019-01-16T22:25:42.117Z,62.00
2019-01-16T22:28:09.238Z,51.63
2019-01-16T22:30:36.293Z,56.02
2019-01-16T22:33:03.461Z,61.37
2019-01-16T22:35:30.168Z,73.45
2019-01-16T22:37:57.313Z,80.95
2019-01-16T22:40:24.401Z,73.57
2019-01-16T22:42:51.127Z,75.55
2019-01-16T22:45:18.273Z,76.10
2019-01-16T22:47:45.321Z,69.72
2019-01-16T22:50:12.669Z,80.28
2019-01-16T22:52:39.384Z,79.00
2019-01-16T22:55:06.529Z,70.22
2019-01-16T22:57:33.224Z,72.65
2019-01-16T22:59:59.916Z,74.80
2019-01-16T23:02:26.629Z,71.85
2019-01-16T23:04:53.736Z,61.53
2019-01-16T23:07:20.378Z,60.23
2019-01-16T23:09:47.035Z,60.85
2019-01-16T23:12:14.160Z,65.25
2019-01-16T23:14:40.880Z,67.70
2019-01-16T23:17:07.594Z,61.08
2019-01-16T23:19:34.260Z,55.15
2019-01-16T23:22:01.237Z,52.50
2019-01-16T23:24:28.046Z,51.20
2019-01-16T23:26:54.787Z,52.10
2019-01-16T23:29:22.162Z,64.22
2019-01-16T23:31:48.878Z,54.83
2019-01-16T23:34:16.719Z,49.53
2019-01-16T23:36:43.513Z,47.50
2019-01-16T23:39:10.598Z,58.80
2019-01-16T23:41:38.370Z,56.37
2019-01-16T23:44:05.485Z,52.70
2019-01-16T23:46:32.629Z,47.53
2019-01-16T23:48:59.992Z,49.88
2019-01-16T23:51:27.129Z,39.78
2019-01-16T23:53:56.236Z,41.60
2019-01-16T23:56:22.917Z,46.30
2019-01-16T23:58:49.613Z,46.42
